Latest Weather Observations for Hobart

IDT60801

Issued at 9:35 am EDT Thursday 23 October 2014 (issued every 30 minutes, with the page automatically refreshed every 10 minutes)

About weather observations | Map of weather stations | Latest weather observations for TAS | Other Formats
Station Details ID: 094029 Name: HOBART (ELLERSLIE ROAD) Lat: -42.89 Lon: 147.33 Height: 50.5 m
Data from the previous 72 hours. | See also: Recent months at Hobart
Date/Time
EDT
Temp
°C
App
Temp
°C
Dew
Point
Rel
Hum
%
Delta-T
°C
Wind Press
QNH
hPa
Press
MSL
hPa
Rain
since 9 am
mm
Dir
 
Spd
km/h
Gust
km/h
Spd
kts
Gust
kts
23/09:30am 11.6 6.2 2.3 53 4.0 S 20 32 11 17 1026.3 1026.4 0.0
23/09:00am 11.3 5.9 1.5 51 4.1 SSE 19 26 10 14 1026.2 1026.3 0.0
23/08:30am 11.4 6.0 2.3 53 3.9 SE 20 28 11 15 1025.9 1026.0 0.0
23/08:00am 11.5 5.3 2.4 53 3.9 SE 24 33 13 18 1025.6 1025.7 0.0
23/07:30am 11.2 5.5 2.9 56 3.6 S 22 33 12 18 1025.1 1025.2 0.0
23/07:00am 11.0 7.2 4.0 62 3.1 SSE 13 22 7 12 1024.6 1024.7 0.0
23/06:30am 10.9 7.5 3.9 62 3.1 S 11 20 6 11 1024.2 1024.2 0.0
23/06:00am 10.8 7.0 3.8 62 3.1 S 13 24 7 13 1023.6 1023.6 0.0
23/05:30am 10.8 6.2 3.8 62 3.1 S 17 28 9 15 1023.1 1023.1 0.0
23/05:00am 10.7 6.6 4.2 64 2.9 S 15 22 8 12 1022.6 1022.6 0.0
23/04:30am 10.8 6.7 4.6 65 2.8 SSE 15 26 8 14 1022.5 1022.5 0.0
23/04:00am 11.1 6.3 4.7 64 2.9 SE 19 28 10 15 1022.2 1022.2 0.0
23/03:30am 11.3 7.1 5.7 68 2.6 S 17 24 9 13 1021.9 1021.9 0.0
23/03:00am 11.4 7.4 6.8 73 2.2 S 17 30 9 16 1021.8 1021.8 0.0
23/02:30am 11.7 7.0 7.6 76 2.0 S 22 39 12 21 1021.7 1021.7 0.0
23/02:00am 11.8 7.8 8.1 78 1.8 S 19 32 10 17 1021.3 1021.3 0.0
23/01:30am 12.4 6.8 8.6 77 1.9 SSW 28 41 15 22 1021.2 1021.2 0.0
23/01:00am 13.0 7.5 9.2 78 1.9 S 28 39 15 21 1021.1 1021.1 0.0
23/12:41am 13.4 8.0 9.5 77 2.0 S 28 46 15 25 1020.9 1020.9 0.0
23/12:30am 13.8 8.7 9.1 73 2.4 SSW 26 39 14 21 1020.8 1020.8 0.0
23/12:00am 14.0 8.5 9.3 73 2.4 SSW 28 43 15 23 1020.3 1020.3 0.0
 
Date/Time
EDT
Temp
°C
App
Temp
°C
Dew
Point
Rel
Hum
%
Delta-T
°C
Wind Press
QNH
hPa
Press
MSL
hPa
Rain
since 9 am
mm
Dir
 
Spd
km/h
Gust
km/h
Spd
kts
Gust
kts
22/11:30pm 14.1 9.1 9.4 73 2.4 S 26 37 14 20 1020.0 1020.0 0.0
22/11:00pm 14.1 8.7 9.4 73 2.4 SSW 28 44 15 24 1019.4 1019.4 0.0
22/10:30pm 14.6 9.4 10.4 76 2.2 SSW 28 39 15 21 1018.9 1018.9 0.0
22/10:00pm 14.3 13.4 11.3 82 1.6 ENE 7 9 4 5 1018.5 1018.5 0.0
22/09:30pm 14.0 11.3 11.8 86 1.2 E 17 24 9 13 1018.3 1018.3 0.0
22/09:00pm 14.0 11.7 11.6 85 1.3 ESE 15 20 8 11 1017.8 1017.8 0.0
22/08:30pm 14.1 10.9 11.3 83 1.5 ESE 19 26 10 14 1017.3 1017.3 0.0
22/08:00pm 14.7 11.1 9.9 73 2.5 ESE 19 24 10 13 1016.6 1016.6 0.0
22/07:30pm 15.8 13.1 8.8 63 3.6 SE 13 22 7 12 1016.0 1016.0 0.0
22/07:00pm 16.9 13.6 6.6 50 5.1 SSE 13 19 7 10 1015.5 1015.5 0.0
22/06:30pm 18.0 13.9 6.0 45 5.9 S 17 24 9 13 1014.8 1014.8 0.0
22/06:00pm 16.4 13.4 10.8 69 3.0 ENE 17 26 9 14 1014.0 1014.0 0.0
22/05:30pm 19.6 16.7 6.7 43 6.5 SSE 11 15 6 8 1014.5 1014.5 0.0
22/05:00pm 20.1 16.8 6.4 41 6.9 SSE 13 20 7 11 1013.7 1013.7 0.0
22/04:30pm 20.3 17.6 7.2 42 6.7 ESE 11 19 6 10 1013.4 1013.4 0.0
22/04:00pm 21.5 17.4 6.3 37 7.7 ESE 17 26 9 14 1013.8 1013.8 0.0
22/03:30pm 21.4 16.9 7.0 39 7.4 ESE 20 28 11 15 1013.8 1013.8 0.0
22/03:00pm 21.1 17.3 7.6 41 7.0 ESE 17 24 9 13 1013.6 1013.6 0.0
22/02:30pm 21.7 17.8 6.9 38 7.6 ESE 17 22 9 12 1013.8 1013.8 0.0
22/02:00pm 24.1 20.3 2.0 23 10.5 E 11 17 6 9 1014.0 1014.0 0.0
22/01:30pm 25.1 20.9 1.5 21 11.2 NNW 13 17 7 9 1014.6 1014.6 0.0
22/01:00pm 24.3 19.0 2.0 23 10.6 N 19 28 10 15 1014.8 1014.8 0.0
22/12:30pm 22.7 17.3 1.4 24 9.9 N 19 24 10 13 1015.5 1015.5 0.0
22/12:00pm 21.3 15.2 2.6 29 8.8 NNW 24 33 13 18 1016.0 1016.0 0.0
22/11:30am 20.7 15.3 2.2 29 8.6 N 20 30 11 16 1016.7 1016.7 0.0
22/11:00am 18.7 13.0 2.7 34 7.4 N 22 35 12 19 1017.2 1017.2 0.0
22/10:30am 17.6 12.2 2.4 36 6.9 N 20 32 11 17 1017.8 1017.8 0.0
22/10:00am 16.7 11.4 2.9 39 6.3 N 20 32 11 17 1018.4 1018.4 0.0
22/09:30am 15.0 9.4 3.6 46 5.2 NNW 22 35 12 19 1018.7 1018.7 0.0
22/09:00am 14.1 9.2 4.0 50 4.6 NNW 19 30 10 16 1018.9 1018.9 0.0
22/08:30am 12.8 8.8 4.7 58 3.7 NW 15 22 8 12 1019.2 1019.2 0.0
22/08:00am 13.4 10.1 4.7 55 4.0 NW 11 20 6 11 1019.5 1019.5 0.0
22/07:30am 11.0 5.9 4.3 63 3.0 NW 20 35 11 19 1019.5 1019.5 0.0
22/07:00am 11.0 7.3 4.3 63 3.0 NW 13 26 7 14 1019.6 1019.6 0.0
22/06:30am 10.5 6.4 4.2 65 2.8 WNW 15 22 8 12 1019.9 1019.9 0.0
22/06:10am 10.7 3.7 3.9 63 3.0 N 30 48 16 26 1019.7 1019.7 0.0
22/06:00am 10.6 3.9 3.8 63 3.0 N 28 41 15 22 1019.6 1019.6 0.0
22/05:45am 10.2 2.3 4.4 67 2.6 N 35 46 19 25 1020.0 1020.0 0.0
22/05:30am 10.0 6.3 4.6 69 2.4 N 13 28 7 15 1020.2 1020.2 0.0
22/05:00am 10.4 4.6 4.6 67 2.6 N 24 37 13 20 1020.6 1020.6 0.0
22/04:30am 10.5 3.2 4.7 67 2.6 NNW 32 43 17 23 1020.8 1020.8 0.0
22/04:00am 10.9 3.6 4.7 65 2.8 NNW 32 44 17 24 1021.1 1021.1 0.0
22/03:30am 11.1 4.6 4.9 65 2.8 N 28 41 15 22 1021.6 1021.6 0.0
22/03:00am 11.4 6.1 5.0 65 2.9 N 22 37 12 20 1022.3 1022.3 0.0
22/02:30am 11.9 5.1 5.1 63 3.1 N 30 39 16 21 1022.6 1022.6 0.0
22/02:00am 11.9 7.3 5.4 64 3.0 NNW 19 28 10 15 1023.3 1023.3 0.0
22/01:30am 11.3 8.7 5.9 69 2.5 N 9 13 5 7 1023.7 1023.7 0.0
22/01:00am 11.7 8.0 6.4 70 2.5 N 15 20 8 11 1024.1 1024.1 0.0
22/12:30am 11.9 7.3 6.6 70 2.5 NNW 20 26 11 14 1024.5 1024.6 0.0
22/12:00am 11.6 8.4 6.7 72 2.3 NNW 13 19 7 10 1024.8 1024.9 0.0
 
Date/Time
EDT
Temp
°C
App
Temp
°C
Dew
Point
Rel
Hum
%
Delta-T
°C
Wind Press
QNH
hPa
Press
MSL
hPa
Rain
since 9 am
mm
Dir
 
Spd
km/h
Gust
km/h
Spd
kts
Gust
kts
21/11:30pm 12.0 8.8 6.7 70 2.5 N 13 19 7 10 1025.2 1025.3 0.0
21/11:00pm 11.2 9.4 7.0 75 2.0 NW 6 11 3 6 1025.6 1025.7 0.0
21/10:30pm 11.5 9.1 7.1 74 2.1 WSW 9 11 5 6 1025.9 1026.0 0.0
21/10:00pm 11.8 9.5 7.4 74 2.1 SW 9 11 5 6 1026.3 1026.4 0.0
21/09:30pm 12.2 9.9 7.4 72 2.3 WSW 9 11 5 6 1026.7 1026.8 0.0
21/09:00pm 12.7 10.4 7.6 71 2.5 WSW 9 11 5 6 1026.8 1026.9 0.0
21/08:30pm 13.3 11.0 7.6 68 2.8 SW 9 13 5 7 1026.7 1026.8 0.0
21/08:00pm 14.5 12.6 7.6 63 3.4 S 7 13 4 7 1026.8 1026.9 0.0
21/07:30pm 15.0 11.1 7.3 60 3.8 S 17 20 9 11 1026.8 1026.9 0.0
21/07:00pm 15.4 11.9 7.3 58 4.0 S 15 20 8 11 1026.8 1026.9 0.0
21/06:30pm 16.1 12.6 7.2 55 4.4 SSE 15 26 8 14 1027.0 1027.1 0.0
21/06:00pm 16.9 12.6 7.0 52 4.9 SE 19 26 10 14 1027.1 1027.2 0.0
21/05:30pm 16.7 11.5 7.2 53 4.7 SE 24 32 13 17 1027.3 1027.4 0.0
21/05:00pm 17.3 13.0 8.0 54 4.7 SE 20 28 11 15 1027.3 1027.4 0.0
21/04:30pm 17.5 13.4 7.8 53 4.9 SE 19 28 10 15 1027.6 1027.7 0.0
21/04:00pm 17.9 13.3 6.5 47 5.6 SE 20 24 11 13 1028.1 1028.2 0.0
21/03:30pm 18.1 13.5 5.8 44 6.0 ESE 19 20 10 11 1028.4 1028.5 0.0
21/03:00pm 18.6 14.7 3.6 37 7.0 ESE 13 17 7 9 1028.9 1029.0 0.0
21/02:30pm 18.5 14.6 3.5 37 7.0 ESE 13 19 7 10 1029.5 1029.6 0.0
21/02:00pm 18.5 14.9 3.1 36 7.1 ENE 11 19 6 10 1030.1 1030.2 0.0
21/01:30pm 18.8 15.0 3.9 37 7.1 N 13 24 7 13 1030.7 1030.7 0.0
21/01:00pm 18.0 14.2 3.9 39 6.6 NNW 13 22 7 12 1031.1 1031.1 0.0
21/12:30pm 17.9 14.0 3.4 38 6.8 N 13 22 7 12 1031.5 1031.5 0.0
21/12:00pm 17.4 13.5 3.5 39 6.4 NNW 13 24 7 13 1031.9 1031.9 0.0
21/11:30am 16.3 12.0 3.0 41 6.1 NNW 15 28 8 15 1032.3 1032.3 0.0
21/11:00am 15.6 10.7 2.3 40 5.9 NNW 17 22 9 12 1032.8 1032.8 0.0
21/10:30am 14.8 10.4 2.9 44 5.4 NNW 15 22 8 12 1033.2 1033.2 0.0
21/10:00am 13.4 8.2 2.7 48 4.7 NNW 19 28 10 15 1033.4 1033.4 0.0
21/09:30am 12.0 6.9 3.1 54 3.9 NNW 19 24 10 13 1033.7 1033.7 0.0
21/09:00am 10.4 5.4 3.5 62 3.0 NNW 19 26 10 14 1033.8 1033.8 0.2
21/08:30am 8.8 4.2 3.7 70 2.2 NW 17 22 9 12 1034.0 1034.0 0.2
21/08:00am 7.5 2.9 3.5 76 1.7 NNW 17 24 9 13 1034.0 1034.0 0.2
21/07:30am 6.2 1.9 3.3 82 1.2 NW 15 20 8 11 1033.7 1033.7 0.2
21/07:00am 5.7 -0.4 3.0 83 1.1 NW 24 32 13 17 1033.6 1033.6 0.2
21/06:30am 5.2 0.0 2.7 84 1.0 NW 19 24 10 13 1033.5 1033.5 0.2
21/06:00am 5.5 0.7 2.8 83 1.1 NW 17 24 9 13 1033.3 1033.3 0.2
21/05:30am 5.3 1.3 2.8 84 1.0 NW 13 19 7 10 1033.3 1033.3 0.2
21/05:00am 5.6 1.3 3.2 84 1.0 NW 15 20 8 11 1033.0 1033.0 0.2
21/04:30am 5.9 1.6 3.0 82 1.2 NNW 15 19 8 10 1033.0 1033.0 0.2
21/04:00am 6.3 2.1 3.7 83 1.1 NNW 15 20 8 11 1033.1 1033.1 0.2
21/03:30am 6.9 3.4 3.6 79 1.4 N 11 15 6 8 1033.1 1033.1 0.2
21/03:00am 7.0 3.8 3.2 77 1.6 N 9 13 5 7 1033.3 1033.3 0.2
21/02:30am 7.2 4.5 3.7 78 1.5 N 7 9 4 5 1033.5 1033.5 0.2
21/02:00am 7.7 5.1 4.0 77 1.6 NNW 7 11 4 6 1033.7 1033.7 0.2
21/01:30am 8.4 5.0 4.0 74 1.9 NNW 11 15 6 8 1033.8 1033.8 0.2
21/01:00am 9.1 5.7 3.8 69 2.3 N 11 17 6 9 1034.2 1034.2 0.2
21/12:30am 9.7 6.6 3.7 66 2.6 N 9 15 5 8 1034.6 1034.6 0.2
21/12:00am 10.0 7.0 4.1 67 2.6 NNE 9 13 5 7 1034.7 1034.7 0.2
 
Date/Time
EDT
Temp
°C
App
Temp
°C
Dew
Point
Rel
Hum
%
Delta-T
°C
Wind Press
QNH
hPa
Press
MSL
hPa
Rain
since 9 am
mm
Dir
 
Spd
km/h
Gust
km/h
Spd
kts
Gust
kts
20/11:30pm 9.9 6.5 4.2 67 2.5 NNE 11 13 6 7 1035.0 1035.0 0.2
20/11:00pm 10.1 7.1 4.2 67 2.6 NE 9 13 5 7 1035.5 1035.5 0.2
20/10:30pm 10.1 7.4 3.9 65 2.7 E 7 11 4 6 1035.6 1035.6 0.2
20/10:00pm 10.2 6.8 3.8 64 2.8 ESE 11 15 6 8 1035.7 1035.7 0.2
20/09:30pm 10.1 6.7 3.9 65 2.7 ESE 11 17 6 9 1035.6 1035.6 0.2
20/09:00pm 10.1 6.7 3.9 65 2.7 SE 11 17 6 9 1035.5 1035.5 0.2
20/08:30pm 9.8 5.9 3.5 65 2.7 S 13 17 7 9 1035.2 1035.2 0.2
20/08:00pm 10.0 6.1 3.5 64 2.8 SSE 13 19 7 10 1034.9 1034.9 0.2
20/07:30pm 10.1 5.4 3.1 62 3.0 SSE 17 24 9 13 1034.6 1034.6 0.2
20/07:00pm 10.5 6.2 3.3 61 3.1 SSE 15 22 8 12 1034.4 1034.4 0.2
20/06:30pm 10.8 5.6 2.6 57 3.5 SSE 19 26 10 14 1034.0 1034.0 0.2
20/06:00pm 11.3 6.0 1.8 52 4.0 S 19 24 10 13 1033.7 1033.7 0.2
20/05:30pm 11.3 5.8 1.8 52 4.0 SSE 20 28 11 15 1033.8 1033.8 0.2
20/05:00pm 11.8 6.3 1.9 50 4.2 SSE 20 30 11 16 1033.7 1033.7 0.2
20/04:30pm 12.4 7.2 2.4 50 4.4 SE 19 26 10 14 1033.7 1033.7 0.2
20/04:00pm 12.2 6.4 2.5 51 4.2 SE 22 32 12 17 1033.7 1033.7 0.2
20/03:30pm 12.3 6.6 2.6 51 4.2 SE 22 30 12 16 1033.6 1033.6 0.2
20/03:00pm 12.5 7.0 0.7 44 4.9 SE 19 26 10 14 1033.6 1033.6 0.2
20/02:30pm 12.3 7.1 0.1 43 5.0 SE 17 20 9 11 1033.7 1033.7 0.2
20/02:00pm 12.1 7.5 -1.3 39 5.3 ESE 13 19 7 10 1034.0 1034.0 0.2
20/01:30pm 12.2 7.5 -1.5 38 5.5 E 13 19 7 10 1033.9 1033.9 0.2
20/01:00pm 12.1 7.1 -1.0 40 5.2 E 15 20 8 11 1034.1 1034.1 0.2
20/12:30pm 12.3 7.0 -0.6 41 5.2 ENE 17 22 9 12 1034.1 1034.1 0.2
20/12:00pm 11.9 6.0 -2.0 38 5.4 E 19 24 10 13 1034.2 1034.2 0.2
20/11:30am 12.2 7.1 -1.9 37 5.6 S 15 20 8 11 1034.2 1034.2 0.2
20/11:00am 12.2 7.5 -1.9 37 5.5 SSW 13 22 7 12 1034.3 1034.3 0.0
20/10:30am 12.0 7.0 -1.1 40 5.3 WSW 15 24 8 13 1034.2 1034.2 0.0
20/10:00am 10.5 5.4 -2.1 41 4.8 SSW 15 26 8 14 1034.3 1034.3 0.0

Other Formats:

Comma delimited format used in spreadsheet applications
http://www.bom.gov.au/fwo/IDT60801/IDT60801.94970.axf

JavaScript Object Notation format (JSON) in row-major order
http://www.bom.gov.au/fwo/IDT60801/IDT60801.94970.json